Terminal Aerodrome Forecast
Issued by NWS Shreveport, LA

Home | Current Version | Previous Version | Text Only | Print | Product List | Glossary On
Versions: 1 2 3 4 5 6 7 8 9 10 11 12 13 14 15 16 17 18 19
000
FTUS44 KSHV 241738 AAA
TAFMLU
TAF AMD
KMLU 241738Z 2418/2518 08004KT P6SM VCTS FEW050CB
      TEMPO 2418/2422 VRB15G22KT 3SM -TSRA
     FM250100 VRB03KT P6SM SCT060 BKN120 BKN250
     FM250600 00000KT P6SM SCT150 BKN250
     FM251400 VRB03KT P6SM VCTS SCT050CB=

USA.gov is the U.S. government's official web portal to all federal, state and local government web resources and services.